sensor_id;sensor_type;location;lat;lon;timestamp;P1;durP1;ratioP1;P2;durP2;ratioP2
10303;SDS011;5197;48.152;8.590;2023-03-11T00:00:39;0.87;;;0.70;;
10303;SDS011;5197;48.152;8.590;2023-03-11T00:03:13;0.63;;;0.63;;
10303;SDS011;5197;48.152;8.590;2023-03-11T00:05:41;0.90;;;0.90;;
10303;SDS011;5197;48.152;8.590;2023-03-11T00:08:11;1.23;;;1.13;;
10303;SDS011;5197;48.152;8.590;2023-03-11T00:10:41;1.13;;;1.10;;
10303;SDS011;5197;48.152;8.590;2023-03-11T00:13:10;0.60;;;0.60;;
10303;SDS011;5197;48.152;8.590;2023-03-11T00:15:38;0.80;;;0.80;;
10303;SDS011;5197;48.152;8.590;2023-03-11T00:18:05;1.50;;;1.40;;
10303;SDS011;5197;48.152;8.590;2023-03-11T00:20:36;1.40;;;1.40;;
10303;SDS011;5197;48.152;8.590;2023-03-11T00:23:06;1.10;;;1.10;;
10303;SDS011;5197;48.152;8.590;2023-03-11T00:25:34;3.87;;;0.80;;
10303;SDS011;5197;48.152;8.590;2023-03-11T00:28:02;1.10;;;1.00;;
10303;SDS011;5197;48.152;8.590;2023-03-11T00:30:30;1.80;;;1.70;;
10303;SDS011;5197;48.152;8.590;2023-03-11T00:32:58;1.80;;;1.70;;
10303;SDS011;5197;48.152;8.590;2023-03-11T00:35:26;1.70;;;1.60;;
10303;SDS011;5197;48.152;8.590;2023-03-11T00:37:57;1.80;;;1.70;;
10303;SDS011;5197;48.152;8.590;2023-03-11T00:40:26;3.10;;;2.07;;
10303;SDS011;5197;48.152;8.590;2023-03-11T00:42:55;2.00;;;1.90;;
10303;SDS011;5197;48.152;8.590;2023-03-11T00:45:22;3.27;;;1.73;;
10303;SDS011;5197;48.152;8.590;2023-03-11T00:47:50;1.57;;;1.50;;
10303;SDS011;5197;48.152;8.590;2023-03-11T00:50:18;2.37;;;1.73;;
10303;SDS011;5197;48.152;8.590;2023-03-11T00:52:47;1.83;;;1.73;;
10303;SDS011;5197;48.152;8.590;2023-03-11T00:55:22;1.60;;;1.30;;
10303;SDS011;5197;48.152;8.590;2023-03-11T00:57:54;1.70;;;1.60;;
10303;SDS011;5197;48.152;8.590;2023-03-11T01:00:26;1.60;;;1.50;;
10303;SDS011;5197;48.152;8.590;2023-03-11T01:02:54;1.83;;;1.73;;
10303;SDS011;5197;48.152;8.590;2023-03-11T01:05:23;2.10;;;1.90;;
10303;SDS011;5197;48.152;8.590;2023-03-11T01:07:52;1.80;;;1.63;;
10303;SDS011;5197;48.152;8.590;2023-03-11T01:10:19;1.23;;;1.23;;
10303;SDS011;5197;48.152;8.590;2023-03-11T01:12:46;2.03;;;1.27;;
10303;SDS011;5197;48.152;8.590;2023-03-11T01:15:21;1.73;;;1.63;;
10303;SDS011;5197;48.152;8.590;2023-03-11T01:17:50;1.00;;;1.00;;
10303;SDS011;5197;48.152;8.590;2023-03-11T01:20:17;2.37;;;1.80;;
10303;SDS011;5197;48.152;8.590;2023-03-11T01:22:44;1.90;;;1.80;;
10303;SDS011;5197;48.152;8.590;2023-03-11T01:25:15;1.33;;;1.30;;
10303;SDS011;5197;48.152;8.590;2023-03-11T01:27:44;1.80;;;1.53;;
10303;SDS011;5197;48.152;8.590;2023-03-11T01:30:16;0.90;;;0.90;;
10303;SDS011;5197;48.152;8.590;2023-03-11T01:32:45;1.77;;;1.67;;
10303;SDS011;5197;48.152;8.590;2023-03-11T01:35:13;1.40;;;1.37;;
10303;SDS011;5197;48.152;8.590;2023-03-11T01:37:42;0.67;;;0.60;;
10303;SDS011;5197;48.152;8.590;2023-03-11T01:40:13;0.73;;;0.73;;
10303;SDS011;5197;48.152;8.590;2023-03-11T01:42:51;1.20;;;1.20;;
10303;SDS011;5197;48.152;8.590;2023-03-11T01:46:03;1.63;;;1.30;;
10303;SDS011;5197;48.152;8.590;2023-03-11T01:48:17;2.40;;;1.60;;
10303;SDS011;5197;48.152;8.590;2023-03-11T01:50:44;3.60;;;1.30;;
10303;SDS011;5197;48.152;8.590;2023-03-11T01:53:15;1.47;;;1.00;;
10303;SDS011;5197;48.152;8.590;2023-03-11T01:55:43;1.30;;;1.20;;
10303;SDS011;5197;48.152;8.590;2023-03-11T01:58:13;1.50;;;1.40;;
10303;SDS011;5197;48.152;8.590;2023-03-11T02:00:42;2.10;;;1.20;;
10303;SDS011;5197;48.152;8.590;2023-03-11T02:06:10;1.37;;;0.77;;
10303;SDS011;5197;48.152;8.590;2023-03-11T02:08:40;0.97;;;0.83;;
10303;SDS011;5197;48.152;8.590;2023-03-11T02:11:09;1.40;;;1.40;;
10303;SDS011;5197;48.152;8.590;2023-03-11T02:13:40;1.23;;;1.13;;
10303;SDS011;5197;48.152;8.590;2023-03-11T02:16:08;1.70;;;1.10;;
10303;SDS011;5197;48.152;8.590;2023-03-11T02:18:35;1.37;;;0.97;;
10303;SDS011;5197;48.152;8.590;2023-03-11T02:21:23;2.10;;;0.97;;
10303;SDS011;5197;48.152;8.590;2023-03-11T02:23:57;1.37;;;1.30;;
10303;SDS011;5197;48.152;8.590;2023-03-11T02:26:36;1.20;;;1.10;;
10303;SDS011;5197;48.152;8.590;2023-03-11T02:29:22;2.80;;;1.57;;
10303;SDS011;5197;48.152;8.590;2023-03-11T02:31:50;1.17;;;1.10;;
10303;SDS011;5197;48.152;8.590;2023-03-11T02:34:22;1.20;;;1.10;;
10303;SDS011;5197;48.152;8.590;2023-03-11T02:36:50;1.10;;;1.00;;
10303;SDS011;5197;48.152;8.590;2023-03-11T02:39:28;1.70;;;1.17;;
10303;SDS011;5197;48.152;8.590;2023-03-11T02:41:55;4.30;;;0.77;;
10303;SDS011;5197;48.152;8.590;2023-03-11T02:44:22;0.60;;;0.60;;
10303;SDS011;5197;48.152;8.590;2023-03-11T02:46:49;2.93;;;1.20;;
10303;SDS011;5197;48.152;8.590;2023-03-11T02:49:19;1.33;;;1.23;;
10303;SDS011;5197;48.152;8.590;2023-03-11T02:51:46;1.40;;;1.30;;
10303;SDS011;5197;48.152;8.590;2023-03-11T02:54:13;0.73;;;0.63;;
10303;SDS011;5197;48.152;8.590;2023-03-11T02:56:40;0.80;;;0.80;;
10303;SDS011;5197;48.152;8.590;2023-03-11T02:59:07;1.13;;;1.10;;
10303;SDS011;5197;48.152;8.590;2023-03-11T03:01:34;1.00;;;1.00;;
10303;SDS011;5197;48.152;8.590;2023-03-11T03:04:01;1.00;;;0.90;;
10303;SDS011;5197;48.152;8.590;2023-03-11T03:06:27;0.90;;;0.90;;
10303;SDS011;5197;48.152;8.590;2023-03-11T03:08:54;1.30;;;1.00;;
10303;SDS011;5197;48.152;8.590;2023-03-11T03:11:21;0.73;;;0.73;;
10303;SDS011;5197;48.152;8.590;2023-03-11T03:13:48;0.63;;;0.60;;
10303;SDS011;5197;48.152;8.590;2023-03-11T03:16:15;0.80;;;0.80;;
10303;SDS011;5197;48.152;8.590;2023-03-11T03:18:41;1.90;;;1.07;;
10303;SDS011;5197;48.152;8.590;2023-03-11T03:21:08;1.10;;;1.07;;
10303;SDS011;5197;48.152;8.590;2023-03-11T03:23:35;2.30;;;1.17;;
10303;SDS011;5197;48.152;8.590;2023-03-11T03:26:03;2.13;;;1.13;;
10303;SDS011;5197;48.152;8.590;2023-03-11T03:28:31;0.73;;;0.60;;
10303;SDS011;5197;48.152;8.590;2023-03-11T03:31:10;2.00;;;1.20;;
10303;SDS011;5197;48.152;8.590;2023-03-11T03:33:37;0.50;;;0.37;;
10303;SDS011;5197;48.152;8.590;2023-03-11T03:36:05;1.37;;;1.27;;
10303;SDS011;5197;48.152;8.590;2023-03-11T03:38:33;1.30;;;0.73;;
10303;SDS011;5197;48.152;8.590;2023-03-11T03:40:59;2.43;;;0.67;;
10303;SDS011;5197;48.152;8.590;2023-03-11T03:43:26;0.90;;;0.90;;
10303;SDS011;5197;48.152;8.590;2023-03-11T03:46:00;0.40;;;0.40;;
10303;SDS011;5197;48.152;8.590;2023-03-11T03:48:29;2.40;;;1.00;;
10303;SDS011;5197;48.152;8.590;2023-03-11T03:51:00;0.43;;;0.43;;
10303;SDS011;5197;48.152;8.590;2023-03-11T03:53:32;1.00;;;0.80;;
10303;SDS011;5197;48.152;8.590;2023-03-11T03:56:03;0.50;;;0.50;;
10303;SDS011;5197;48.152;8.590;2023-03-11T03:58:31;0.37;;;0.37;;
10303;SDS011;5197;48.152;8.590;2023-03-11T04:00:58;2.03;;;1.03;;
10303;SDS011;5197;48.152;8.590;2023-03-11T04:03:26;0.70;;;0.70;;
10303;SDS011;5197;48.152;8.590;2023-03-11T04:05:53;2.00;;;0.60;;
10303;SDS011;5197;48.152;8.590;2023-03-11T04:08:30;1.10;;;0.90;;
10303;SDS011;5197;48.152;8.590;2023-03-11T04:10:56;1.67;;;0.93;;
10303;SDS011;5197;48.152;8.590;2023-03-11T04:13:23;0.40;;;0.40;;
10303;SDS011;5197;48.152;8.590;2023-03-11T04:15:50;0.57;;;0.57;;
10303;SDS011;5197;48.152;8.590;2023-03-11T04:18:17;2.67;;;0.87;;
10303;SDS011;5197;48.152;8.590;2023-03-11T04:20:44;1.43;;;0.70;;
10303;SDS011;5197;48.152;8.590;2023-03-11T04:23:11;0.60;;;0.60;;
10303;SDS011;5197;48.152;8.590;2023-03-11T04:25:38;1.43;;;1.13;;
10303;SDS011;5197;48.152;8.590;2023-03-11T04:28:05;0.70;;;0.70;;
10303;SDS011;5197;48.152;8.590;2023-03-11T04:30:32;0.43;;;0.43;;
10303;SDS011;5197;48.152;8.590;2023-03-11T04:32:59;0.50;;;0.50;;
10303;SDS011;5197;48.152;8.590;2023-03-11T04:35:26;1.37;;;0.77;;
10303;SDS011;5197;48.152;8.590;2023-03-11T04:37:52;2.47;;;0.80;;
10303;SDS011;5197;48.152;8.590;2023-03-11T04:40:19;0.87;;;0.87;;
10303;SDS011;5197;48.152;8.590;2023-03-11T04:42:46;1.13;;;1.03;;
10303;SDS011;5197;48.152;8.590;2023-03-11T04:45:13;0.60;;;0.60;;
10303;SDS011;5197;48.152;8.590;2023-03-11T04:47:40;0.87;;;0.67;;
10303;SDS011;5197;48.152;8.590;2023-03-11T04:50:07;0.53;;;0.53;;
10303;SDS011;5197;48.152;8.590;2023-03-11T04:52:34;0.90;;;0.90;;
10303;SDS011;5197;48.152;8.590;2023-03-11T04:55:01;0.77;;;0.60;;
10303;SDS011;5197;48.152;8.590;2023-03-11T04:57:27;2.17;;;0.80;;
10303;SDS011;5197;48.152;8.590;2023-03-11T04:59:54;2.37;;;0.53;;
10303;SDS011;5197;48.152;8.590;2023-03-11T05:02:21;0.40;;;0.40;;
10303;SDS011;5197;48.152;8.590;2023-03-11T05:04:48;0.30;;;0.30;;
10303;SDS011;5197;48.152;8.590;2023-03-11T05:07:15;0.97;;;0.97;;
10303;SDS011;5197;48.152;8.590;2023-03-11T05:09:42;1.53;;;1.27;;
10303;SDS011;5197;48.152;8.590;2023-03-11T05:12:10;0.30;;;0.30;;
10303;SDS011;5197;48.152;8.590;2023-03-11T05:14:37;0.77;;;0.77;;
10303;SDS011;5197;48.152;8.590;2023-03-11T05:17:04;1.43;;;1.33;;
10303;SDS011;5197;48.152;8.590;2023-03-11T05:19:31;2.60;;;1.00;;
10303;SDS011;5197;48.152;8.590;2023-03-11T05:22:01;0.50;;;0.50;;
10303;SDS011;5197;48.152;8.590;2023-03-11T05:24:28;1.40;;;1.03;;
10303;SDS011;5197;48.152;8.590;2023-03-11T05:26:56;2.60;;;1.20;;
10303;SDS011;5197;48.152;8.590;2023-03-11T05:29:23;1.33;;;0.90;;
10303;SDS011;5197;48.152;8.590;2023-03-11T05:31:51;1.07;;;1.03;;
10303;SDS011;5197;48.152;8.590;2023-03-11T05:34:19;3.60;;;0.77;;
10303;SDS011;5197;48.152;8.590;2023-03-11T05:36:47;3.97;;;1.10;;
10303;SDS011;5197;48.152;8.590;2023-03-11T05:39:14;0.70;;;0.70;;
10303;SDS011;5197;48.152;8.590;2023-03-11T05:41:41;1.60;;;1.07;;
10303;SDS011;5197;48.152;8.590;2023-03-11T05:44:08;0.80;;;0.80;;
10303;SDS011;5197;48.152;8.590;2023-03-11T05:46:35;0.90;;;0.90;;
10303;SDS011;5197;48.152;8.590;2023-03-11T05:49:02;2.70;;;1.10;;
10303;SDS011;5197;48.152;8.590;2023-03-11T05:51:29;7.13;;;0.70;;
10303;SDS011;5197;48.152;8.590;2023-03-11T05:53:56;0.93;;;0.93;;
10303;SDS011;5197;48.152;8.590;2023-03-11T05:56:24;2.67;;;1.10;;
10303;SDS011;5197;48.152;8.590;2023-03-11T05:58:50;0.30;;;0.30;;
10303;SDS011;5197;48.152;8.590;2023-03-11T06:01:17;1.70;;;1.30;;
10303;SDS011;5197;48.152;8.590;2023-03-11T06:03:45;1.07;;;1.03;;
10303;SDS011;5197;48.152;8.590;2023-03-11T06:06:12;1.30;;;1.10;;
10303;SDS011;5197;48.152;8.590;2023-03-11T06:08:39;1.63;;;1.10;;
10303;SDS011;5197;48.152;8.590;2023-03-11T06:11:11;2.30;;;1.10;;
10303;SDS011;5197;48.152;8.590;2023-03-11T06:13:38;2.10;;;1.17;;
10303;SDS011;5197;48.152;8.590;2023-03-11T06:16:05;4.97;;;1.27;;
10303;SDS011;5197;48.152;8.590;2023-03-11T06:18:33;2.83;;;0.97;;
10303;SDS011;5197;48.152;8.590;2023-03-11T06:21:00;3.80;;;1.70;;
10303;SDS011;5197;48.152;8.590;2023-03-11T06:23:28;1.57;;;1.30;;
10303;SDS011;5197;48.152;8.590;2023-03-11T06:26:01;2.87;;;1.17;;
10303;SDS011;5197;48.152;8.590;2023-03-11T06:28:30;3.60;;;1.30;;
10303;SDS011;5197;48.152;8.590;2023-03-11T06:31:07;1.17;;;1.07;;
10303;SDS011;5197;48.152;8.590;2023-03-11T06:33:35;1.50;;;1.23;;
10303;SDS011;5197;48.152;8.590;2023-03-11T06:36:02;1.60;;;1.20;;
10303;SDS011;5197;48.152;8.590;2023-03-11T06:38:31;0.93;;;0.93;;
10303;SDS011;5197;48.152;8.590;2023-03-11T06:41:00;3.00;;;1.23;;
10303;SDS011;5197;48.152;8.590;2023-03-11T06:43:29;2.20;;;1.30;;
10303;SDS011;5197;48.152;8.590;2023-03-11T06:45:56;1.20;;;1.10;;
10303;SDS011;5197;48.152;8.590;2023-03-11T06:48:24;4.30;;;1.30;;
10303;SDS011;5197;48.152;8.590;2023-03-11T06:50:58;2.10;;;1.30;;
10303;SDS011;5197;48.152;8.590;2023-03-11T06:53:26;0.77;;;0.77;;
10303;SDS011;5197;48.152;8.590;2023-03-11T06:56:07;2.53;;;1.40;;
10303;SDS011;5197;48.152;8.590;2023-03-11T06:58:39;2.37;;;1.07;;
10303;SDS011;5197;48.152;8.590;2023-03-11T07:01:09;1.20;;;0.90;;
10303;SDS011;5197;48.152;8.590;2023-03-11T07:03:41;0.90;;;0.90;;
10303;SDS011;5197;48.152;8.590;2023-03-11T07:06:12;1.20;;;1.10;;
10303;SDS011;5197;48.152;8.590;2023-03-11T07:08:45;2.83;;;1.07;;
10303;SDS011;5197;48.152;8.590;2023-03-11T07:11:15;2.53;;;1.30;;
10303;SDS011;5197;48.152;8.590;2023-03-11T07:13:44;3.93;;;1.33;;
10303;SDS011;5197;48.152;8.590;2023-03-11T07:16:13;2.40;;;0.97;;
10303;SDS011;5197;48.152;8.590;2023-03-11T07:18:43;4.00;;;1.40;;
10303;SDS011;5197;48.152;8.590;2023-03-11T07:21:13;1.70;;;1.30;;
10303;SDS011;5197;48.152;8.590;2023-03-11T07:23:41;4.40;;;1.20;;
10303;SDS011;5197;48.152;8.590;2023-03-11T07:26:09;0.93;;;0.53;;
10303;SDS011;5197;48.152;8.590;2023-03-11T07:28:37;1.23;;;1.13;;
10303;SDS011;5197;48.152;8.590;2023-03-11T07:31:18;1.40;;;0.80;;
10303;SDS011;5197;48.152;8.590;2023-03-11T07:33:46;4.13;;;1.10;;
10303;SDS011;5197;48.152;8.590;2023-03-11T07:36:14;3.43;;;1.10;;
10303;SDS011;5197;48.152;8.590;2023-03-11T07:38:44;0.73;;;0.70;;
10303;SDS011;5197;48.152;8.590;2023-03-11T07:41:15;1.67;;;0.90;;
10303;SDS011;5197;48.152;8.590;2023-03-11T07:43:41;2.10;;;1.00;;
10303;SDS011;5197;48.152;8.590;2023-03-11T07:46:10;4.40;;;1.03;;
10303;SDS011;5197;48.152;8.590;2023-03-11T07:48:39;3.27;;;0.97;;
10303;SDS011;5197;48.152;8.590;2023-03-11T07:51:08;3.77;;;1.23;;
10303;SDS011;5197;48.152;8.590;2023-03-11T07:53:40;2.13;;;0.73;;
10303;SDS011;5197;48.152;8.590;2023-03-11T07:56:08;1.30;;;1.10;;
10303;SDS011;5197;48.152;8.590;2023-03-11T07:58:37;1.97;;;1.20;;
10303;SDS011;5197;48.152;8.590;2023-03-11T08:01:05;2.40;;;1.30;;
10303;SDS011;5197;48.152;8.590;2023-03-11T08:03:34;1.20;;;0.70;;
10303;SDS011;5197;48.152;8.590;2023-03-11T08:06:02;1.80;;;1.00;;
10303;SDS011;5197;48.152;8.590;2023-03-11T08:08:36;3.83;;;1.67;;
10303;SDS011;5197;48.152;8.590;2023-03-11T08:11:03;1.20;;;1.00;;
10303;SDS011;5197;48.152;8.590;2023-03-11T08:13:29;4.40;;;2.40;;
10303;SDS011;5197;48.152;8.590;2023-03-11T08:15:56;0.80;;;0.80;;
10303;SDS011;5197;48.152;8.590;2023-03-11T08:18:23;3.80;;;1.03;;
10303;SDS011;5197;48.152;8.590;2023-03-11T08:20:50;2.63;;;0.97;;
10303;SDS011;5197;48.152;8.590;2023-03-11T08:23:17;3.50;;;1.03;;
10303;SDS011;5197;48.152;8.590;2023-03-11T08:25:44;1.83;;;0.83;;
10303;SDS011;5197;48.152;8.590;2023-03-11T08:28:11;1.60;;;0.90;;
10303;SDS011;5197;48.152;8.590;2023-03-11T08:30:37;0.93;;;0.93;;
10303;SDS011;5197;48.152;8.590;2023-03-11T08:33:07;4.13;;;0.70;;
10303;SDS011;5197;48.152;8.590;2023-03-11T08:35:34;1.13;;;0.60;;
10303;SDS011;5197;48.152;8.590;2023-03-11T08:38:01;0.80;;;0.80;;
10303;SDS011;5197;48.152;8.590;2023-03-11T08:40:27;2.87;;;1.10;;
10303;SDS011;5197;48.152;8.590;2023-03-11T08:42:54;3.63;;;1.07;;
10303;SDS011;5197;48.152;8.590;2023-03-11T08:45:21;1.97;;;1.00;;
10303;SDS011;5197;48.152;8.590;2023-03-11T08:47:48;4.77;;;1.43;;
10303;SDS011;5197;48.152;8.590;2023-03-11T08:50:16;1.00;;;1.00;;
10303;SDS011;5197;48.152;8.590;2023-03-11T08:52:45;2.23;;;1.20;;
10303;SDS011;5197;48.152;8.590;2023-03-11T08:55:16;3.77;;;1.23;;
10303;SDS011;5197;48.152;8.590;2023-03-11T08:57:50;1.97;;;1.07;;
10303;SDS011;5197;48.152;8.590;2023-03-11T09:00:17;1.00;;;0.90;;
10303;SDS011;5197;48.152;8.590;2023-03-11T09:02:44;2.87;;;0.80;;
10303;SDS011;5197;48.152;8.590;2023-03-11T09:05:11;3.00;;;1.20;;
10303;SDS011;5197;48.152;8.590;2023-03-11T09:07:38;0.93;;;0.83;;
10303;SDS011;5197;48.152;8.590;2023-03-11T09:10:05;1.23;;;0.90;;
10303;SDS011;5197;48.152;8.590;2023-03-11T09:12:32;3.50;;;1.00;;
10303;SDS011;5197;48.152;8.590;2023-03-11T09:14:58;2.40;;;0.77;;
10303;SDS011;5197;48.152;8.590;2023-03-11T09:17:25;2.20;;;0.80;;
10303;SDS011;5197;48.152;8.590;2023-03-11T09:19:52;0.57;;;0.37;;
10303;SDS011;5197;48.152;8.590;2023-03-11T09:22:19;2.07;;;1.23;;
10303;SDS011;5197;48.152;8.590;2023-03-11T09:24:45;0.70;;;0.70;;
10303;SDS011;5197;48.152;8.590;2023-03-11T09:27:12;1.33;;;0.83;;
10303;SDS011;5197;48.152;8.590;2023-03-11T09:29:40;1.23;;;1.00;;
10303;SDS011;5197;48.152;8.590;2023-03-11T09:32:09;0.73;;;0.70;;
10303;SDS011;5197;48.152;8.590;2023-03-11T09:34:38;0.40;;;0.40;;
10303;SDS011;5197;48.152;8.590;2023-03-11T09:37:05;1.33;;;0.67;;
10303;SDS011;5197;48.152;8.590;2023-03-11T09:39:32;1.80;;;0.60;;
10303;SDS011;5197;48.152;8.590;2023-03-11T09:45:35;0.90;;;0.60;;
10303;SDS011;5197;48.152;8.590;2023-03-11T09:48:09;0.83;;;0.57;;
10303;SDS011;5197;48.152;8.590;2023-03-11T09:50:50;1.30;;;0.70;;
10303;SDS011;5197;48.152;8.590;2023-03-11T09:56:15;2.13;;;0.90;;
10303;SDS011;5197;48.152;8.590;2023-03-11T09:58:49;3.40;;;1.07;;
10303;SDS011;5197;48.152;8.590;2023-03-11T10:01:34;1.03;;;0.37;;
10303;SDS011;5197;48.152;8.590;2023-03-11T10:04:13;1.93;;;0.50;;
10303;SDS011;5197;48.152;8.590;2023-03-11T10:06:43;2.33;;;0.63;;
10303;SDS011;5197;48.152;8.590;2023-03-11T10:15:19;1.40;;;0.67;;
10303;SDS011;5197;48.152;8.590;2023-03-11T10:20:54;2.93;;;0.97;;
10303;SDS011;5197;48.152;8.590;2023-03-11T10:24:00;1.10;;;1.00;;
10303;SDS011;5197;48.152;8.590;2023-03-11T10:26:54;2.20;;;1.10;;
10303;SDS011;5197;48.152;8.590;2023-03-11T10:29:26;3.80;;;1.17;;
10303;SDS011;5197;48.152;8.590;2023-03-11T10:31:57;2.50;;;1.10;;
10303;SDS011;5197;48.152;8.590;2023-03-11T10:34:38;2.93;;;1.37;;
10303;SDS011;5197;48.152;8.590;2023-03-11T10:37:10;0.90;;;0.90;;
10303;SDS011;5197;48.152;8.590;2023-03-11T10:42:51;1.90;;;0.70;;
10303;SDS011;5197;48.152;8.590;2023-03-11T10:45:21;2.50;;;1.20;;
10303;SDS011;5197;48.152;8.590;2023-03-11T10:47:49;2.93;;;0.90;;
10303;SDS011;5197;48.152;8.590;2023-03-11T10:50:16;3.67;;;1.07;;
10303;SDS011;5197;48.152;8.590;2023-03-11T10:55:35;2.70;;;0.90;;
10303;SDS011;5197;48.152;8.590;2023-03-11T10:58:12;3.10;;;0.90;;
10303;SDS011;5197;48.152;8.590;2023-03-11T11:00:41;1.73;;;0.90;;
10303;SDS011;5197;48.152;8.590;2023-03-11T11:03:14;2.00;;;0.90;;
10303;SDS011;5197;48.152;8.590;2023-03-11T11:05:55;2.03;;;1.47;;
10303;SDS011;5197;48.152;8.590;2023-03-11T11:08:24;0.87;;;0.87;;
10303;SDS011;5197;48.152;8.590;2023-03-11T11:10:51;1.33;;;1.10;;
10303;SDS011;5197;48.152;8.590;2023-03-11T11:13:27;3.50;;;1.10;;
10303;SDS011;5197;48.152;8.590;2023-03-11T11:16:01;2.27;;;0.70;;
10303;SDS011;5197;48.152;8.590;2023-03-11T11:18:43;1.00;;;0.93;;
10303;SDS011;5197;48.152;8.590;2023-03-11T11:21:31;1.23;;;0.90;;
10303;SDS011;5197;48.152;8.590;2023-03-11T11:24:11;2.30;;;1.07;;
10303;SDS011;5197;48.152;8.590;2023-03-11T11:29:45;1.93;;;1.10;;
10303;SDS011;5197;48.152;8.590;2023-03-11T11:34:42;1.77;;;0.90;;
10303;SDS011;5197;48.152;8.590;2023-03-11T11:37:26;1.63;;;0.93;;
10303;SDS011;5197;48.152;8.590;2023-03-11T11:40:05;1.37;;;1.00;;
10303;SDS011;5197;48.152;8.590;2023-03-11T11:42:38;1.10;;;0.80;;
10303;SDS011;5197;48.152;8.590;2023-03-11T11:45:12;2.40;;;0.80;;
10303;SDS011;5197;48.152;8.590;2023-03-11T11:47:42;4.80;;;1.10;;
10303;SDS011;5197;48.152;8.590;2023-03-11T11:50:15;2.43;;;0.70;;
10303;SDS011;5197;48.152;8.590;2023-03-11T11:52:51;0.97;;;0.60;;
10303;SDS011;5197;48.152;8.590;2023-03-11T11:55:24;2.63;;;0.90;;
10303;SDS011;5197;48.152;8.590;2023-03-11T11:57:53;1.73;;;0.80;;
10303;SDS011;5197;48.152;8.590;2023-03-11T12:00:27;2.87;;;0.80;;
10303;SDS011;5197;48.152;8.590;2023-03-11T12:03:18;1.17;;;0.60;;
10303;SDS011;5197;48.152;8.590;2023-03-11T12:05:57;1.83;;;0.90;;
10303;SDS011;5197;48.152;8.590;2023-03-11T12:11:42;1.10;;;1.00;;
10303;SDS011;5197;48.152;8.590;2023-03-11T12:14:19;2.37;;;1.07;;
10303;SDS011;5197;48.152;8.590;2023-03-11T12:19:20;1.10;;;1.00;;
10303;SDS011;5197;48.152;8.590;2023-03-11T12:24:26;2.77;;;1.50;;
10303;SDS011;5197;48.152;8.590;2023-03-11T12:27:25;1.70;;;1.07;;
10303;SDS011;5197;48.152;8.590;2023-03-11T12:29:57;2.57;;;1.87;;
10303;SDS011;5197;48.152;8.590;2023-03-11T12:32:30;1.13;;;1.00;;
10303;SDS011;5197;48.152;8.590;2023-03-11T12:35:02;2.50;;;1.00;;
10303;SDS011;5197;48.152;8.590;2023-03-11T12:37:44;0.87;;;0.83;;
10303;SDS011;5197;48.152;8.590;2023-03-11T12:46:06;1.20;;;0.67;;
10303;SDS011;5197;48.152;8.590;2023-03-11T12:48:42;1.63;;;1.10;;
10303;SDS011;5197;48.152;8.590;2023-03-11T12:53:53;3.80;;;1.53;;
10303;SDS011;5197;48.152;8.590;2023-03-11T12:56:32;1.27;;;1.17;;
10303;SDS011;5197;48.152;8.590;2023-03-11T13:02:28;1.47;;;0.97;;
10303;SDS011;5197;48.152;8.590;2023-03-11T13:05:29;2.60;;;1.93;;
10303;SDS011;5197;48.152;8.590;2023-03-11T13:08:12;1.47;;;0.83;;
10303;SDS011;5197;48.152;8.590;2023-03-11T13:10:45;1.63;;;1.17;;
10303;SDS011;5197;48.152;8.590;2023-03-11T13:15:56;3.53;;;1.10;;
10303;SDS011;5197;48.152;8.590;2023-03-11T13:18:44;1.30;;;1.20;;
10303;SDS011;5197;48.152;8.590;2023-03-11T13:27:00;1.53;;;0.70;;
10303;SDS011;5197;48.152;8.590;2023-03-11T13:40:44;1.43;;;1.17;;
10303;SDS011;5197;48.152;8.590;2023-03-11T13:43:04;3.00;;;1.00;;
10303;SDS011;5197;48.152;8.590;2023-03-11T13:45:40;1.27;;;1.17;;
10303;SDS011;5197;48.152;8.590;2023-03-11T13:50:39;2.33;;;1.13;;
10303;SDS011;5197;48.152;8.590;2023-03-11T13:53:18;1.73;;;1.10;;
10303;SDS011;5197;48.152;8.590;2023-03-11T13:55:51;2.23;;;1.07;;
10303;SDS011;5197;48.152;8.590;2023-03-11T13:58:22;0.50;;;0.50;;
10303;SDS011;5197;48.152;8.590;2023-03-11T14:00:54;3.40;;;1.27;;
10303;SDS011;5197;48.152;8.590;2023-03-11T14:03:24;1.43;;;0.83;;
10303;SDS011;5197;48.152;8.590;2023-03-11T14:06:12;1.67;;;1.10;;
10303;SDS011;5197;48.152;8.590;2023-03-11T14:08:54;0.30;;;0.30;;
10303;SDS011;5197;48.152;8.590;2023-03-11T14:11:26;3.07;;;1.30;;
10303;SDS011;5197;48.152;8.590;2023-03-11T14:13:54;1.43;;;1.33;;
10303;SDS011;5197;48.152;8.590;2023-03-11T14:16:28;2.30;;;1.20;;
10303;SDS011;5197;48.152;8.590;2023-03-11T14:19:16;2.30;;;1.10;;
10303;SDS011;5197;48.152;8.590;2023-03-11T14:21:47;1.63;;;1.10;;
10303;SDS011;5197;48.152;8.590;2023-03-11T14:24:18;3.90;;;1.10;;
10303;SDS011;5197;48.152;8.590;2023-03-11T14:26:55;2.33;;;1.00;;
10303;SDS011;5197;48.152;8.590;2023-03-11T14:29:32;3.50;;;0.90;;
10303;SDS011;5197;48.152;8.590;2023-03-11T14:34:55;1.50;;;1.03;;
10303;SDS011;5197;48.152;8.590;2023-03-11T14:37:37;1.60;;;0.47;;
10303;SDS011;5197;48.152;8.590;2023-03-11T14:43:05;0.70;;;0.70;;
10303;SDS011;5197;48.152;8.590;2023-03-11T14:45:36;0.90;;;0.80;;
10303;SDS011;5197;48.152;8.590;2023-03-11T14:48:11;1.83;;;1.00;;
10303;SDS011;5197;48.152;8.590;2023-03-11T14:50:47;1.83;;;0.90;;
10303;SDS011;5197;48.152;8.590;2023-03-11T14:53:23;1.27;;;1.17;;
10303;SDS011;5197;48.152;8.590;2023-03-11T14:56:07;1.33;;;1.23;;
10303;SDS011;5197;48.152;8.590;2023-03-11T15:01:36;1.20;;;0.50;;
10303;SDS011;5197;48.152;8.590;2023-03-11T15:04:10;2.00;;;1.17;;
10303;SDS011;5197;48.152;8.590;2023-03-11T15:06:52;1.90;;;0.90;;
10303;SDS011;5197;48.152;8.590;2023-03-11T15:09:20;1.70;;;0.57;;
10303;SDS011;5197;48.152;8.590;2023-03-11T15:11:58;0.83;;;0.80;;
10303;SDS011;5197;48.152;8.590;2023-03-11T15:14:28;1.93;;;0.87;;
10303;SDS011;5197;48.152;8.590;2023-03-11T15:17:09;0.93;;;0.90;;
10303;SDS011;5197;48.152;8.590;2023-03-11T15:20:24;0.83;;;0.83;;
10303;SDS011;5197;48.152;8.590;2023-03-11T15:23:01;1.37;;;1.03;;
10303;SDS011;5197;48.152;8.590;2023-03-11T15:25:33;1.50;;;0.87;;
10303;SDS011;5197;48.152;8.590;2023-03-11T15:28:21;1.10;;;1.00;;
10303;SDS011;5197;48.152;8.590;2023-03-11T15:33:45;4.43;;;1.27;;
10303;SDS011;5197;48.152;8.590;2023-03-11T15:36:29;2.60;;;0.90;;
10303;SDS011;5197;48.152;8.590;2023-03-11T15:41:38;0.70;;;0.70;;
10303;SDS011;5197;48.152;8.590;2023-03-11T15:44:19;1.50;;;0.73;;
10303;SDS011;5197;48.152;8.590;2023-03-11T15:46:53;1.43;;;1.17;;
10303;SDS011;5197;48.152;8.590;2023-03-11T15:49:20;8.80;;;5.83;;
10303;SDS011;5197;48.152;8.590;2023-03-11T15:51:47;13.83;;;8.17;;
10303;SDS011;5197;48.152;8.590;2023-03-11T15:54:13;10.10;;;5.37;;
10303;SDS011;5197;48.152;8.590;2023-03-11T15:56:40;6.40;;;3.13;;
10303;SDS011;5197;48.152;8.590;2023-03-11T15:59:13;2.13;;;1.70;;
10303;SDS011;5197;48.152;8.590;2023-03-11T16:01:41;2.00;;;1.20;;
10303;SDS011;5197;48.152;8.590;2023-03-11T16:04:13;0.83;;;0.80;;
10303;SDS011;5197;48.152;8.590;2023-03-11T16:06:41;1.13;;;0.77;;
10303;SDS011;5197;48.152;8.590;2023-03-11T16:09:09;1.70;;;0.97;;
10303;SDS011;5197;48.152;8.590;2023-03-11T16:11:37;5.53;;;1.70;;
10303;SDS011;5197;48.152;8.590;2023-03-11T16:14:05;1.23;;;1.13;;
10303;SDS011;5197;48.152;8.590;2023-03-11T16:16:38;0.93;;;0.90;;
10303;SDS011;5197;48.152;8.590;2023-03-11T16:19:06;1.30;;;1.03;;
10303;SDS011;5197;48.152;8.590;2023-03-11T16:21:34;2.17;;;1.00;;
10303;SDS011;5197;48.152;8.590;2023-03-11T16:24:03;1.13;;;1.07;;
10303;SDS011;5197;48.152;8.590;2023-03-11T16:26:31;1.43;;;1.07;;
10303;SDS011;5197;48.152;8.590;2023-03-11T16:29:00;2.00;;;1.30;;
10303;SDS011;5197;48.152;8.590;2023-03-11T16:31:44;1.17;;;0.50;;
10303;SDS011;5197;48.152;8.590;2023-03-11T16:34:10;1.47;;;1.03;;
10303;SDS011;5197;48.152;8.590;2023-03-11T16:36:37;1.17;;;0.97;;
10303;SDS011;5197;48.152;8.590;2023-03-11T16:39:04;2.40;;;0.83;;
10303;SDS011;5197;48.152;8.590;2023-03-11T16:41:39;3.13;;;1.63;;
10303;SDS011;5197;48.152;8.590;2023-03-11T16:44:07;2.87;;;1.27;;
10303;SDS011;5197;48.152;8.590;2023-03-11T16:46:35;3.83;;;1.10;;
10303;SDS011;5197;48.152;8.590;2023-03-11T16:49:02;1.17;;;0.67;;